KFXE/FXE METAR and TAF weather

Enter ICAO airport designator
Station Type Date Time Source
KFXE METAR 2021/05/14 11:53 UTC NOAA

KFXE 141153Z 34005KT 10SM SCT040 23/21 A3004 RMK AO2 SLP173 70003 T02280211 10250 20228 53008


Station Type Date Time Source
KFXE Decoded METAR 2021/05/14 11:53 UTC NOAA

FORT LAUDERDALE EXECUTIVE, FL, United States (KFXE) 26-12N 080-11W 6M
May 14, 2021 - 07:53 AM EDT / 2021.05.14 1153 UTC
Wind: from the NNW (340 degrees) at 6 MPH (5 KT):0
Visibility: 10 mile(s):0
Sky conditions: partly cloudy
Temperature: 73.0 F (22.8 C)
Dew Point: 70.0 F (21.1 C)
Relative Humidity: 90%
Pressure (altimeter): 30.04 in. Hg (1017 hPa)
Pressure tendency: 0.02 inches (0.8 hPa) higher than three hours ago
ob: KFXE 141153Z 34005KT 10SM SCT040 23/21 A3004 RMK AO2 SLP173 70003 T02280211 10250 20228 53008
cycle: 12

Station Type Date Time Source
KFXE TAF 2021/05/14 12:33 UTC NOAA

TAF KFXE 141130Z 1412/1512 VRB05KT P6SM SCT025 BKN100 BKN250
FM141500 03010KT P6SM FEW020 SCT120
FM141800 04010KT P6SM VCTS SCT035CB BKN050
FM150100 05008KT P6SM VCSH FEW020 SCT060 BKN120

Example: see airport list